createdAt,value
2019-05-02T00:01:41.059Z,6.37
2019-05-02T00:04:12.513Z,6.62
2019-05-02T00:06:46.431Z,6.00
2019-05-02T00:09:16.913Z,5.73
2019-05-02T00:11:58.295Z,6.30
2019-05-02T00:14:19.593Z,5.97
2019-05-02T00:16:50.511Z,6.42
2019-05-02T00:19:21.083Z,6.33
2019-05-02T00:21:51.545Z,6.10
2019-05-02T00:24:22.089Z,6.35
2019-05-02T00:26:56.050Z,6.20
2019-05-02T00:29:25.055Z,6.30
2019-05-02T00:31:55.574Z,6.10
2019-05-02T00:34:26.029Z,6.45
2019-05-02T00:36:56.491Z,6.40
2019-05-02T00:39:26.989Z,6.90
2019-05-02T00:41:57.437Z,7.90
2019-05-02T00:44:27.902Z,7.83
2019-05-02T00:47:06.073Z,8.60
2019-05-02T00:49:36.668Z,8.70
2019-05-02T00:52:07.292Z,8.63
2019-05-02T00:54:37.828Z,10.55
2019-05-02T00:57:08.202Z,10.35
2019-05-02T00:59:42.426Z,11.45
2019-05-02T01:02:26.419Z,10.97
2019-05-02T01:04:59.258Z,12.30
2019-05-02T01:07:29.183Z,13.00
2019-05-02T01:09:59.674Z,12.70
2019-05-02T01:12:30.263Z,12.70
2019-05-02T01:15:03.452Z,13.70
2019-05-02T01:17:32.939Z,13.85
2019-05-02T01:20:03.453Z,14.40
2019-05-02T01:22:33.970Z,16.23
2019-05-02T01:25:04.616Z,16.30
2019-05-02T01:27:54.026Z,15.90
2019-05-02T01:30:46.239Z,15.98
2019-05-02T01:33:41.656Z,16.73
2019-05-02T01:36:15.536Z,14.78
2019-05-02T01:38:48.293Z,16.37
2019-05-02T01:41:18.759Z,15.88
2019-05-02T01:43:49.234Z,15.53
2019-05-02T01:46:22.330Z,16.80
2019-05-02T01:48:51.914Z,16.10
2019-05-02T01:51:22.425Z,15.95
2019-05-02T01:53:52.945Z,17.40
2019-05-02T01:56:23.447Z,16.32
2019-05-02T01:58:57.694Z,16.40
2019-05-02T02:01:26.145Z,16.70
2019-05-02T02:03:56.634Z,17.52
2019-05-02T02:06:27.124Z,17.52
2019-05-02T02:08:57.708Z,18.52
2019-05-02T02:11:33.449Z,19.30
2019-05-02T02:14:00.407Z,18.27
2019-05-02T02:16:35.314Z,18.92
2019-05-02T02:19:10.655Z,19.50
2019-05-02T02:22:03.007Z,18.40
2019-05-02T02:24:36.917Z,18.50
2019-05-02T02:27:07.462Z,17.82
2019-05-02T02:29:38.997Z,18.73
2019-05-02T02:32:10.478Z,19.42
2019-05-02T02:34:41.010Z,19.23
2019-05-02T02:37:14.652Z,19.30
2019-05-02T02:39:48.551Z,18.27
2019-05-02T02:42:15.915Z,17.60
2019-05-02T02:44:55.048Z,18.50
2019-05-02T02:47:25.558Z,17.87
2019-05-02T02:50:02.719Z,19.52
2019-05-02T02:52:28.260Z,20.30
2019-05-02T02:54:58.830Z,20.60
2019-05-02T02:57:29.261Z,20.60
2019-05-02T03:00:07.533Z,22.80
2019-05-02T03:02:32.028Z,22.50
2019-05-02T03:05:02.490Z,23.27
2019-05-02T03:07:32.980Z,21.33
2019-05-02T03:10:06.276Z,21.37
2019-05-02T03:12:57.974Z,22.63
2019-05-02T03:15:30.602Z,22.20
2019-05-02T03:18:02.126Z,22.20
2019-05-02T03:20:40.070Z,20.45
2019-05-02T03:23:05.993Z,20.57
2019-05-02T03:25:49.747Z,21.20
2019-05-02T03:28:17.800Z,21.12
2019-05-02T03:30:40.908Z,20.10
2019-05-02T03:33:12.510Z,21.40
2019-05-02T03:35:48.768Z,20.32
2019-05-02T03:38:16.457Z,20.52
2019-05-02T03:40:46.944Z,21.12
2019-05-02T03:43:19.111Z,20.97
2019-05-02T03:45:49.723Z,20.82
2019-05-02T03:48:25.765Z,21.62
2019-05-02T03:50:52.422Z,20.82
2019-05-02T03:53:25.206Z,21.75
2019-05-02T03:55:55.657Z,21.97
2019-05-02T03:58:26.500Z,22.42
2019-05-02T04:01:01.544Z,24.47
2019-05-02T04:03:34.321Z,22.37
2019-05-02T04:06:02.340Z,23.02
2019-05-02T04:08:34.206Z,23.42
2019-05-02T04:11:37.874Z,24.72
2019-05-02T04:13:59.860Z,23.05
2019-05-02T04:16:31.522Z,22.45
2019-05-02T04:19:03.750Z,24.50
2019-05-02T04:21:36.501Z,24.75
2019-05-02T04:24:13.671Z,26.05
2019-05-02T04:26:52.057Z,25.77
2019-05-02T04:29:13.319Z,25.10
2019-05-02T04:31:43.732Z,24.12
2019-05-02T04:34:17.476Z,23.52
2019-05-02T04:36:47.240Z,23.32
2019-05-02T04:39:21.593Z,24.50
2019-05-02T04:41:50.879Z,23.87
2019-05-02T04:44:21.390Z,23.15
2019-05-02T04:46:51.903Z,21.75
2019-05-02T04:49:32.817Z,22.87
2019-05-02T04:52:04.787Z,21.87
2019-05-02T04:54:31.825Z,22.45
2019-05-02T04:57:02.356Z,21.65
2019-05-02T04:59:33.285Z,21.85
2019-05-02T05:02:03.514Z,21.95
2019-05-02T05:04:42.292Z,21.55
2019-05-02T05:07:09.093Z,21.80
2019-05-02T05:09:39.938Z,20.40
2019-05-02T05:12:11.020Z,21.97
2019-05-02T05:14:43.311Z,21.77
2019-05-02T05:17:13.680Z,20.52
2019-05-02T05:19:44.219Z,21.52
2019-05-02T05:22:14.669Z,21.77
2019-05-02T05:24:52.365Z,21.40
2019-05-02T05:27:23.182Z,21.85
2019-05-02T05:29:58.854Z,21.23
2019-05-02T05:32:28.057Z,20.15
2019-05-02T05:35:03.197Z,20.72
2019-05-02T05:37:30.455Z,20.10
2019-05-02T05:40:00.950Z,21.52
2019-05-02T05:42:33.442Z,21.12
2019-05-02T05:45:08.993Z,19.82
2019-05-02T05:47:37.828Z,19.95
2019-05-02T05:50:09.038Z,19.90
2019-05-02T05:52:42.407Z,19.00
2019-05-02T05:55:12.804Z,19.82
2019-05-02T05:57:44.015Z,19.90
2019-05-02T06:00:18.736Z,19.92
2019-05-02T06:02:53.722Z,19.10
2019-05-02T06:05:19.878Z,19.40
2019-05-02T06:07:50.332Z,19.62
2019-05-02T06:10:20.704Z,18.35
2019-05-02T06:12:51.112Z,18.12
2019-05-02T06:15:21.612Z,19.27
2019-05-02T06:17:52.141Z,18.57
2019-05-02T06:20:25.668Z,18.87
2019-05-02T06:22:59.734Z,17.43
2019-05-02T06:25:34.401Z,17.50
2019-05-02T06:28:00.290Z,18.82
2019-05-02T06:30:32.389Z,18.50
2019-05-02T06:33:02.976Z,16.90
2019-05-02T06:35:33.432Z,17.57
2019-05-02T06:38:03.903Z,17.57
2019-05-02T06:40:34.420Z,16.70
2019-05-02T06:43:09.695Z,16.10
2019-05-02T06:45:39.316Z,16.52
2019-05-02T06:48:16.779Z,16.07
2019-05-02T06:50:41.531Z,17.10
2019-05-02T06:53:12.020Z,15.65
2019-05-02T06:55:42.505Z,15.93
2019-05-02T06:58:12.998Z,16.60
2019-05-02T07:00:56.470Z,16.40
2019-05-02T07:03:16.179Z,16.60
2019-05-02T07:05:49.038Z,17.40
2019-05-02T07:08:19.086Z,17.00
2019-05-02T07:10:49.839Z,17.55
2019-05-02T07:13:20.358Z,17.27
2019-05-02T07:15:58.303Z,18.23
2019-05-02T07:18:30.467Z,17.82
2019-05-02T07:21:01.431Z,17.05
2019-05-02T07:23:32.169Z,17.40
2019-05-02T07:26:02.733Z,15.50
2019-05-02T07:28:33.180Z,16.30
2019-05-02T07:31:06.587Z,15.95
2019-05-02T07:33:37.551Z,15.80
2019-05-02T07:36:08.171Z,16.02
2019-05-02T07:38:38.637Z,16.37
2019-05-02T07:41:09.126Z,14.50
2019-05-02T07:43:39.584Z,15.10
2019-05-02T07:46:10.054Z,13.65
2019-05-02T07:48:43.540Z,14.70
2019-05-02T07:51:17.333Z,14.05
2019-05-02T07:53:48.482Z,14.03
2019-05-02T07:56:19.008Z,13.27
2019-05-02T07:58:49.540Z,13.28
2019-05-02T08:01:20.088Z,14.50
2019-05-02T08:03:50.556Z,13.77
2019-05-02T08:06:34.344Z,13.98
2019-05-02T08:08:53.283Z,14.35
2019-05-02T08:11:23.741Z,13.60
2019-05-02T08:13:55.502Z,15.30
2019-05-02T08:16:27.336Z,15.13
2019-05-02T08:19:01.301Z,16.17
2019-05-02T08:21:32.606Z,15.53
2019-05-02T08:24:03.682Z,15.53
2019-05-02T08:27:02.288Z,16.57
2019-05-02T08:29:32.956Z,14.90
2019-05-02T08:32:03.430Z,15.18
2019-05-02T08:34:33.930Z,14.80
2019-05-02T08:37:04.990Z,16.50
2019-05-02T08:39:35.584Z,17.65
2019-05-02T08:42:06.624Z,16.23
2019-05-02T08:44:49.635Z,16.67
2019-05-02T08:47:48.880Z,15.95
2019-05-02T08:50:19.354Z,16.07
2019-05-02T08:52:49.820Z,13.35
2019-05-02T08:55:20.267Z,12.50
2019-05-02T08:57:50.738Z,11.70
2019-05-02T09:00:21.205Z,12.40
2019-05-02T09:02:51.705Z,11.53
2019-05-02T09:05:22.155Z,10.30
2019-05-02T09:07:52.667Z,11.00
2019-05-02T09:10:23.139Z,8.80
2019-05-02T09:12:53.576Z,8.90
2019-05-02T09:15:24.071Z,8.40
2019-05-02T09:17:56.481Z,8.37
2019-05-02T09:20:26.740Z,8.68
2019-05-02T09:22:57.271Z,7.80
2019-05-02T09:25:27.955Z,8.00
2019-05-02T09:27:58.463Z,8.70
2019-05-02T09:30:29.139Z,7.78
2019-05-02T09:33:04.842Z,8.65
2019-05-02T09:35:32.830Z,8.30
2019-05-02T09:38:03.444Z,8.00
2019-05-02T09:40:33.950Z,8.43
2019-05-02T09:43:04.888Z,8.30
2019-05-02T09:45:37.308Z,8.85
2019-05-02T09:48:08.412Z,8.65
2019-05-02T09:50:38.868Z,7.85
2019-05-02T09:53:13.006Z,7.37
2019-05-02T09:55:49.554Z,7.67
2019-05-02T09:58:19.452Z,6.80
2019-05-02T10:01:06.878Z,6.40
2019-05-02T10:03:37.449Z,6.30
2019-05-02T10:06:08.433Z,7.00
2019-05-02T10:08:43.431Z,6.97
2019-05-02T10:11:16.636Z,6.87
2019-05-02T10:13:44.772Z,6.10
2019-05-02T10:16:17.921Z,6.47
2019-05-02T10:18:47.440Z,6.33
2019-05-02T10:21:17.997Z,6.15
2019-05-02T10:23:51.746Z,5.80
2019-05-02T10:26:24.582Z,6.15
2019-05-02T10:28:53.446Z,6.90
2019-05-02T10:31:27.488Z,7.00
2019-05-02T10:33:56.172Z,6.90
2019-05-02T10:36:26.751Z,7.00
2019-05-02T10:38:59.236Z,7.50
2019-05-02T10:41:33.560Z,7.90
2019-05-02T10:44:02.228Z,8.20
2019-05-02T10:46:38.677Z,9.40
2019-05-02T10:49:18.650Z,9.13
2019-05-02T10:51:51.821Z,10.30
2019-05-02T10:54:23.102Z,10.10
2019-05-02T10:56:53.876Z,9.95
2019-05-02T10:59:24.393Z,10.13
2019-05-02T11:02:06.151Z,10.03
2019-05-02T11:04:39.690Z,10.50
2019-05-02T11:07:11.963Z,11.03
2019-05-02T11:09:42.602Z,12.58
2019-05-02T11:12:16.431Z,12.80
2019-05-02T11:14:53.954Z,12.50
2019-05-02T11:17:29.278Z,11.93
2019-05-02T11:20:08.302Z,13.93
2019-05-02T11:22:38.871Z,13.18
2019-05-02T11:25:09.504Z,13.85
2019-05-02T11:27:41.799Z,13.57
2019-05-02T11:30:16.886Z,13.90
2019-05-02T11:32:45.858Z,13.10
2019-05-02T11:35:16.325Z,13.40
2019-05-02T11:37:46.832Z,13.35
2019-05-02T11:40:17.462Z,13.20
2019-05-02T11:42:48.661Z,13.90
2019-05-02T11:45:19.164Z,14.90
2019-05-02T11:47:49.727Z,15.23
2019-05-02T11:50:22.038Z,14.87
2019-05-02T11:52:52.515Z,15.10
2019-05-02T11:55:27.368Z,16.12
2019-05-02T11:57:55.390Z,16.25
2019-05-02T12:00:25.869Z,14.63
2019-05-02T12:03:17.424Z,14.87
2019-05-02T12:05:47.946Z,15.10
2019-05-02T12:08:18.429Z,14.43
2019-05-02T12:10:49.078Z,15.25
2019-05-02T12:13:19.593Z,16.30
2019-05-02T12:15:51.919Z,14.73
2019-05-02T12:18:23.331Z,14.95
2019-05-02T12:20:53.963Z,14.70
2019-05-02T12:23:24.480Z,15.00
2019-05-02T12:25:55.194Z,13.98
2019-05-02T12:28:25.690Z,13.83
2019-05-02T12:30:56.204Z,13.90
2019-05-02T12:33:29.393Z,14.90
2019-05-02T12:35:59.896Z,14.60
2019-05-02T12:38:32.347Z,14.58
2019-05-02T12:41:02.802Z,14.15
2019-05-02T12:43:33.293Z,14.55
2019-05-02T12:46:03.844Z,15.88
2019-05-02T12:48:34.360Z,15.70
2019-05-02T12:51:04.903Z,15.63
2019-05-02T12:53:35.380Z,15.05
2019-05-02T12:56:05.892Z,15.63
2019-05-02T12:58:36.398Z,16.42
2019-05-02T13:01:06.965Z,15.50
2019-05-02T13:03:55.101Z,16.20
2019-05-02T13:06:25.773Z,15.50
2019-05-02T13:08:56.250Z,16.40
2019-05-02T13:11:36.837Z,17.35
2019-05-02T13:14:18.519Z,17.23
2019-05-02T13:16:40.447Z,18.32
2019-05-02T13:19:11.955Z,16.93
2019-05-02T13:22:13.663Z,17.15
2019-05-02T13:25:03.141Z,16.97
2019-05-02T13:27:43.383Z,15.30
2019-05-02T13:30:10.071Z,14.38
2019-05-02T13:32:42.983Z,14.23
2019-05-02T13:35:24.751Z,15.50
2019-05-02T13:37:57.835Z,14.87
2019-05-02T13:40:33.123Z,15.10
2019-05-02T13:43:03.654Z,16.02
2019-05-02T13:45:53.203Z,15.50
2019-05-02T13:48:23.735Z,13.32
2019-05-02T13:50:54.341Z,11.53
2019-05-02T13:53:24.957Z,11.48
2019-05-02T13:56:15.098Z,10.88
2019-05-02T13:58:45.675Z,11.48
2019-05-02T14:01:17.739Z,11.88
2019-05-02T14:03:48.335Z,11.43
2019-05-02T14:06:22.032Z,10.95
2019-05-02T14:08:59.828Z,11.15
2019-05-02T14:11:44.385Z,9.80
2019-05-02T14:14:14.864Z,9.85
2019-05-02T14:16:45.382Z,9.95
2019-05-02T14:19:15.891Z,10.20
2019-05-02T14:21:46.380Z,10.95
2019-05-02T14:24:18.561Z,10.98
2019-05-02T14:26:49.091Z,9.88
2019-05-02T14:29:19.566Z,10.20
2019-05-02T14:31:51.819Z,9.00
2019-05-02T14:34:28.177Z,8.80
2019-05-02T14:36:59.458Z,8.10
2019-05-02T14:39:32.476Z,8.38
2019-05-02T14:42:03.020Z,8.53
2019-05-02T14:45:01.397Z,7.20
2019-05-02T14:47:10.075Z,7.83
2019-05-02T14:49:38.332Z,8.25
2019-05-02T14:52:08.918Z,8.33
2019-05-02T14:54:43.865Z,7.55
2019-05-02T14:57:17.264Z,8.60
2019-05-02T14:59:50.463Z,9.18
2019-05-02T15:02:53.603Z,10.73
2019-05-02T15:05:29.585Z,11.12
2019-05-02T15:08:01.197Z,10.70
2019-05-02T15:10:28.795Z,12.67
2019-05-02T15:13:00.105Z,13.20
2019-05-02T15:15:33.631Z,14.43
2019-05-02T15:18:07.992Z,13.83
2019-05-02T15:20:39.296Z,14.30
2019-05-02T15:23:14.460Z,12.63
2019-05-02T15:25:42.354Z,11.70
2019-05-02T15:28:19.487Z,11.30
2019-05-02T15:31:05.075Z,11.45
2019-05-02T15:33:42.057Z,11.45
2019-05-02T15:36:12.429Z,10.63
2019-05-02T15:38:47.352Z,12.07
2019-05-02T15:41:15.512Z,12.20
2019-05-02T15:43:49.246Z,8.35
2019-05-02T15:46:23.831Z,5.33
2019-05-02T15:48:51.985Z,3.20
2019-05-02T15:51:23.086Z,2.40
2019-05-02T15:54:06.023Z,2.67
2019-05-02T15:56:32.328Z,2.40
2019-05-02T15:59:06.183Z,2.58
2019-05-02T16:01:48.097Z,2.47
2019-05-02T16:04:24.065Z,2.45
2019-05-02T16:06:53.105Z,2.65
2019-05-02T16:09:23.633Z,1.65
2019-05-02T16:11:56.919Z,1.70
2019-05-02T16:14:27.036Z,1.47
2019-05-02T16:17:01.057Z,1.70
2019-05-02T16:19:32.992Z,1.60
2019-05-02T16:22:17.289Z,2.05
2019-05-02T16:24:51.014Z,2.62
2019-05-02T16:27:25.855Z,3.15
2019-05-02T16:29:58.269Z,3.20
2019-05-02T16:32:38.487Z,2.90
2019-05-02T16:35:13.556Z,3.30
2019-05-02T16:37:42.080Z,3.30
2019-05-02T16:40:13.523Z,3.10
2019-05-02T16:42:44.035Z,4.05
2019-05-02T16:45:16.495Z,3.80
2019-05-02T16:47:49.783Z,3.60
2019-05-02T16:50:19.570Z,3.22
2019-05-02T16:52:53.329Z,3.57
2019-05-02T16:55:26.596Z,4.25
2019-05-02T16:58:05.287Z,3.80
2019-05-02T17:00:29.504Z,4.40
2019-05-02T17:03:03.515Z,4.30
2019-05-02T17:05:32.582Z,4.35
2019-05-02T17:08:22.557Z,4.20
2019-05-02T17:10:57.165Z,4.72
2019-05-02T17:13:32.074Z,4.90
2019-05-02T17:16:04.926Z,4.27
2019-05-02T17:18:32.706Z,4.90
2019-05-02T17:21:03.315Z,5.78
2019-05-02T17:23:37.521Z,5.42
2019-05-02T17:26:06.049Z,5.58
2019-05-02T17:28:37.966Z,5.40
2019-05-02T17:31:10.774Z,5.30
2019-05-02T17:33:41.697Z,5.85
2019-05-02T17:36:12.490Z,4.87
2019-05-02T17:38:42.961Z,5.20
2019-05-02T17:41:13.427Z,5.60
2019-05-02T17:43:43.980Z,5.90
2019-05-02T17:46:18.287Z,5.65
2019-05-02T17:48:47.700Z,5.90
2019-05-02T17:51:44.090Z,5.30
2019-05-02T17:54:17.453Z,5.83
2019-05-02T17:56:47.113Z,5.87
2019-05-02T17:59:17.599Z,5.80
2019-05-02T18:01:48.104Z,5.80
2019-05-02T18:04:18.920Z,5.95
2019-05-02T18:06:52.328Z,5.95
2019-05-02T18:09:21.731Z,5.80
2019-05-02T18:11:52.197Z,5.20
2019-05-02T18:14:24.083Z,5.00
2019-05-02T18:16:55.682Z,5.25
2019-05-02T18:19:26.489Z,4.90
2019-05-02T18:21:58.098Z,4.55
2019-05-02T18:24:29.398Z,4.42
2019-05-02T18:26:59.857Z,4.57
2019-05-02T18:29:36.225Z,4.50
2019-05-02T18:32:04.623Z,3.90
2019-05-02T18:34:35.144Z,3.80
2019-05-02T18:37:06.412Z,3.90
2019-05-02T18:39:44.730Z,4.37
2019-05-02T18:42:09.311Z,3.53
2019-05-02T18:44:39.832Z,4.37
2019-05-02T18:47:12.523Z,3.80
2019-05-02T18:49:42.623Z,3.37
2019-05-02T18:52:13.436Z,3.95
2019-05-02T18:54:51.663Z,3.70
2019-05-02T18:57:25.966Z,3.62
2019-05-02T18:59:56.481Z,3.42
2019-05-02T19:02:32.555Z,3.42
2019-05-02T19:04:59.078Z,3.60
2019-05-02T19:07:33.059Z,3.45
2019-05-02T19:10:05.701Z,2.90
2019-05-02T19:12:34.181Z,2.72
2019-05-02T19:15:07.027Z,3.00
2019-05-02T19:17:39.218Z,3.50
2019-05-02T19:20:39.264Z,3.33
2019-05-02T19:23:09.872Z,3.30
2019-05-02T19:25:40.397Z,2.77
2019-05-02T19:28:17.473Z,3.40
2019-05-02T19:30:48.068Z,3.13
2019-05-02T19:33:20.994Z,3.50
2019-05-02T19:35:52.612Z,3.00
2019-05-02T19:38:26.234Z,3.00
2019-05-02T19:40:58.137Z,3.12
2019-05-02T19:43:28.132Z,2.65
2019-05-02T19:45:58.855Z,2.80
2019-05-02T19:48:32.901Z,3.50
2019-05-02T19:51:02.454Z,3.20
2019-05-02T19:53:34.283Z,2.98
2019-05-02T19:56:06.768Z,2.93
2019-05-02T19:58:42.737Z,2.00
2019-05-02T20:01:09.780Z,2.25
2019-05-02T20:03:42.299Z,2.10
2019-05-02T20:06:12.901Z,2.20
2019-05-02T20:08:43.462Z,1.85
2019-05-02T20:11:14.255Z,1.70
2019-05-02T20:13:44.803Z,2.30
2019-05-02T20:16:26.568Z,1.90
2019-05-02T20:18:57.022Z,2.50
2019-05-02T20:21:48.062Z,2.33
2019-05-02T20:24:19.572Z,1.80
2019-05-02T20:26:52.405Z,2.30
2019-05-02T20:29:22.434Z,1.75
2019-05-02T20:31:53.004Z,2.10
2019-05-02T20:34:23.569Z,2.77
2019-05-02T20:36:54.416Z,1.90
2019-05-02T20:39:24.879Z,2.20
2019-05-02T20:41:55.397Z,2.33
2019-05-02T20:44:25.934Z,2.17
2019-05-02T20:46:56.404Z,2.00
2019-05-02T20:49:26.904Z,1.90
2019-05-02T20:51:57.543Z,2.10
2019-05-02T20:54:28.155Z,2.30
2019-05-02T20:56:58.636Z,1.82
2019-05-02T20:59:29.164Z,2.37
2019-05-02T21:02:01.573Z,2.02
2019-05-02T21:04:31.969Z,2.40
2019-05-02T21:07:10.627Z,2.22
2019-05-02T21:10:01.940Z,2.20
2019-05-02T21:12:32.574Z,2.37
2019-05-02T21:15:03.074Z,2.60
2019-05-02T21:17:33.577Z,2.42
2019-05-02T21:20:04.560Z,2.20
2019-05-02T21:22:36.429Z,2.33
2019-05-02T21:25:07.512Z,2.22
2019-05-02T21:27:38.063Z,2.27
2019-05-02T21:30:09.736Z,2.40
2019-05-02T21:32:40.242Z,2.20
2019-05-02T21:35:11.880Z,2.30
2019-05-02T21:37:42.581Z,2.30
2019-05-02T21:40:13.467Z,2.00
2019-05-02T21:42:43.951Z,3.12
2019-05-02T21:45:15.371Z,2.05
2019-05-02T21:47:45.869Z,2.20
2019-05-02T21:50:26.808Z,1.90
2019-05-02T21:53:19.065Z,1.90
2019-05-02T21:56:07.730Z,1.80
2019-05-02T21:58:38.265Z,1.80
2019-05-02T22:01:12.910Z,1.70
2019-05-02T22:03:43.420Z,2.70
2019-05-02T22:06:13.877Z,1.87
2019-05-02T22:08:44.332Z,2.15
2019-05-02T22:11:14.878Z,1.92
2019-05-02T22:13:45.363Z,1.60
2019-05-02T22:16:15.812Z,1.98
2019-05-02T22:18:46.323Z,2.10
2019-05-02T22:21:16.792Z,2.25
2019-05-02T22:23:47.254Z,2.08
2019-05-02T22:26:17.768Z,1.72
2019-05-02T22:28:48.302Z,2.60
2019-05-02T22:31:18.763Z,2.60
2019-05-02T22:33:49.285Z,2.20
2019-05-02T22:36:21.741Z,2.50
2019-05-02T22:38:56.802Z,2.52
2019-05-02T22:41:27.272Z,2.60
2019-05-02T22:43:57.742Z,2.50
2019-05-02T22:46:43.125Z,2.52
2019-05-02T22:49:15.109Z,2.45
2019-05-02T22:51:45.788Z,2.33
2019-05-02T22:54:26.700Z,2.75
2019-05-02T22:56:48.446Z,3.00
2019-05-02T22:59:18.941Z,2.05
2019-05-02T23:01:49.410Z,2.55
2019-05-02T23:04:23.288Z,2.37
2019-05-02T23:06:52.914Z,2.50
2019-05-02T23:09:23.586Z,2.67
2019-05-02T23:11:54.077Z,2.62
2019-05-02T23:14:24.574Z,2.73
2019-05-02T23:16:55.097Z,2.50
2019-05-02T23:19:25.552Z,2.33
2019-05-02T23:21:56.009Z,3.20
2019-05-02T23:24:48.214Z,2.40
2019-05-02T23:27:35.023Z,2.50
2019-05-02T23:30:07.833Z,2.40
2019-05-02T23:32:38.324Z,2.22
2019-05-02T23:35:09.608Z,2.60
2019-05-02T23:37:41.813Z,2.10
2019-05-02T23:40:12.539Z,2.47
2019-05-02T23:42:43.037Z,2.10
2019-05-02T23:45:13.644Z,2.40
2019-05-02T23:47:44.118Z,2.22
2019-05-02T23:50:14.756Z,2.60
2019-05-02T23:52:45.147Z,2.80
2019-05-02T23:55:15.770Z,2.20
2019-05-02T23:57:46.252Z,2.30
